createdAt,value
2022-12-22T00:02:00.172Z,99.90
2022-12-22T00:04:45.682Z,99.90
2022-12-22T00:07:31.121Z,99.90
2022-12-22T00:10:16.750Z,99.90
2022-12-22T00:13:01.921Z,99.90
2022-12-22T00:15:51.111Z,99.90
2022-12-22T00:18:36.758Z,99.90
2022-12-22T00:21:22.256Z,99.90
2022-12-22T00:24:07.793Z,99.90
2022-12-22T00:26:54.294Z,99.90
2022-12-22T00:29:40.404Z,99.90
2022-12-22T00:32:32.528Z,99.90
2022-12-22T00:35:19.077Z,99.90
2022-12-22T00:38:04.679Z,99.90
2022-12-22T00:40:49.878Z,99.90
2022-12-22T00:43:35.410Z,99.90
2022-12-22T00:46:22.911Z,99.90
2022-12-22T00:49:09.295Z,99.90
2022-12-22T00:51:54.843Z,99.90
2022-12-22T00:54:41.657Z,99.90
2022-12-22T00:57:36.195Z,99.90
2022-12-22T01:00:23.817Z,99.90
2022-12-22T01:03:09.503Z,99.90
2022-12-22T01:05:55.015Z,99.90
2022-12-22T01:08:40.523Z,99.90
2022-12-22T01:11:26.907Z,99.90
2022-12-22T01:14:12.061Z,99.90
2022-12-22T01:16:57.847Z,99.90
2022-12-22T01:19:43.082Z,99.90
2022-12-22T01:22:31.304Z,99.90
2022-12-22T01:25:16.837Z,99.90
2022-12-22T01:28:02.325Z,99.90
2022-12-22T01:30:47.772Z,99.90
2022-12-22T01:33:33.427Z,99.90
2022-12-22T01:36:18.999Z,99.90
2022-12-22T01:39:04.633Z,99.90
2022-12-22T01:41:50.232Z,99.90
2022-12-22T01:44:36.664Z,99.90
2022-12-22T01:47:44.203Z,99.90
2022-12-22T01:50:29.675Z,99.90
2022-12-22T01:53:19.838Z,99.90
2022-12-22T01:56:06.405Z,99.90
2022-12-22T01:58:58.534Z,99.90
2022-12-22T02:01:44.361Z,99.90
2022-12-22T02:04:29.974Z,99.90
2022-12-22T02:07:22.541Z,99.90
2022-12-22T02:10:19.636Z,99.90
2022-12-22T02:13:26.357Z,99.90
2022-12-22T02:16:20.101Z,99.90
2022-12-22T02:19:08.477Z,99.90
2022-12-22T02:22:15.449Z,99.90
2022-12-22T02:25:13.121Z,99.90
2022-12-22T02:28:00.137Z,99.90
2022-12-22T02:30:46.658Z,99.90
2022-12-22T02:33:32.085Z,99.90
2022-12-22T02:36:40.768Z,99.90
2022-12-22T02:39:47.545Z,99.90
2022-12-22T02:42:53.202Z,99.90
2022-12-22T02:46:29.901Z,99.90
2022-12-22T02:49:22.210Z,99.90
2022-12-22T02:52:17.040Z,99.90
2022-12-22T02:55:03.523Z,99.90
2022-12-22T02:57:49.050Z,99.90
2022-12-22T03:00:34.670Z,99.90
2022-12-22T03:03:20.286Z,99.90
2022-12-22T03:06:06.065Z,99.90
2022-12-22T03:08:51.485Z,99.90
2022-12-22T03:11:36.992Z,99.90
2022-12-22T03:14:22.664Z,99.90
2022-12-22T03:17:08.211Z,99.90
2022-12-22T03:19:53.520Z,99.90
2022-12-22T03:22:39.098Z,99.90
2022-12-22T03:25:24.977Z,99.90
2022-12-22T03:27:51.857Z,99.90
2022-12-22T03:30:18.935Z,99.90
2022-12-22T03:32:45.772Z,99.90
2022-12-22T03:35:12.619Z,99.90
2022-12-22T03:37:39.443Z,99.90
2022-12-22T03:40:07.180Z,99.90
2022-12-22T03:42:52.705Z,99.90
2022-12-22T03:45:39.857Z,99.90
2022-12-22T03:48:06.753Z,99.90
2022-12-22T03:50:33.735Z,99.90
2022-12-22T03:53:00.614Z,99.90
2022-12-22T03:55:27.913Z,99.90
2022-12-22T03:57:54.819Z,99.90
2022-12-22T04:00:21.760Z,99.90
2022-12-22T04:02:48.754Z,99.90
2022-12-22T04:05:15.802Z,99.90
2022-12-22T04:07:42.627Z,99.90
2022-12-22T04:10:28.631Z,99.90
2022-12-22T04:12:55.614Z,99.90
2022-12-22T04:15:28.895Z,99.90
2022-12-22T04:17:56.274Z,99.90
2022-12-22T04:20:28.410Z,99.90
2022-12-22T04:22:56.531Z,99.90
2022-12-22T04:25:24.661Z,99.90
2022-12-22T04:27:51.627Z,99.90
2022-12-22T04:30:18.751Z,99.90
2022-12-22T04:32:45.679Z,99.90
2022-12-22T04:35:12.682Z,99.90
2022-12-22T04:37:39.529Z,99.90
2022-12-22T04:40:07.008Z,99.90
2022-12-22T04:42:33.967Z,99.90
2022-12-22T04:45:00.777Z,99.90
2022-12-22T04:47:27.676Z,99.90
2022-12-22T04:49:55.873Z,99.90
2022-12-22T04:52:22.936Z,99.90
2022-12-22T04:54:49.824Z,99.90
2022-12-22T04:57:16.791Z,99.90
2022-12-22T04:59:43.701Z,99.90
2022-12-22T05:02:10.749Z,99.90
2022-12-22T05:04:37.722Z,99.90
2022-12-22T05:07:05.067Z,99.90
2022-12-22T05:09:32.003Z,99.90
2022-12-22T05:11:58.907Z,99.90
2022-12-22T05:14:25.867Z,99.90
2022-12-22T05:16:52.848Z,99.90
2022-12-22T05:19:19.851Z,99.90
2022-12-22T05:21:46.797Z,99.90
2022-12-22T05:24:13.735Z,99.90
2022-12-22T05:26:40.707Z,99.90
2022-12-22T05:29:07.594Z,99.90
2022-12-22T05:31:35.510Z,99.90
2022-12-22T05:34:02.398Z,99.90
2022-12-22T05:36:29.312Z,99.90
2022-12-22T05:38:56.217Z,99.90
2022-12-22T05:41:23.084Z,99.90
2022-12-22T05:43:49.937Z,99.90
2022-12-22T05:46:16.980Z,99.90
2022-12-22T05:48:43.855Z,99.90
2022-12-22T05:51:11.328Z,99.90
2022-12-22T05:53:38.831Z,99.90
2022-12-22T05:56:06.572Z,99.90
2022-12-22T05:58:33.897Z,99.90
2022-12-22T06:01:01.615Z,99.90
2022-12-22T06:03:29.751Z,99.90
2022-12-22T06:05:57.995Z,99.90
2022-12-22T06:08:25.830Z,99.90
2022-12-22T06:10:55.457Z,99.90
2022-12-22T06:13:22.461Z,99.90
2022-12-22T06:15:50.209Z,99.90
2022-12-22T06:18:17.585Z,99.90
2022-12-22T06:20:46.768Z,99.90
2022-12-22T06:23:13.655Z,99.90
2022-12-22T06:25:40.495Z,99.90
2022-12-22T06:28:07.454Z,99.90
2022-12-22T06:30:34.296Z,99.90
2022-12-22T06:33:01.690Z,99.90
2022-12-22T06:35:28.871Z,99.90
2022-12-22T06:37:55.864Z,99.90
2022-12-22T06:40:22.856Z,99.90
2022-12-22T06:43:09.114Z,99.90
2022-12-22T06:45:38.545Z,99.90
2022-12-22T06:48:05.850Z,99.90
2022-12-22T06:50:32.951Z,99.90
2022-12-22T06:53:00.019Z,99.90
2022-12-22T06:55:26.951Z,99.90
2022-12-22T06:57:54.893Z,99.90
2022-12-22T07:00:22.249Z,99.90
2022-12-22T07:02:49.415Z,99.90
2022-12-22T07:05:16.628Z,99.90
2022-12-22T07:07:43.700Z,99.90
2022-12-22T07:10:11.259Z,99.90
2022-12-22T07:12:38.550Z,99.90
2022-12-22T07:15:06.314Z,99.90
2022-12-22T07:17:33.191Z,99.90
2022-12-22T07:20:00.223Z,99.90
2022-12-22T07:22:30.359Z,99.90
2022-12-22T07:24:58.500Z,99.90
2022-12-22T07:27:25.501Z,99.90
2022-12-22T07:29:52.398Z,99.90
2022-12-22T07:32:19.220Z,99.90
2022-12-22T07:34:46.247Z,99.90
2022-12-22T07:37:13.894Z,99.90
2022-12-22T07:39:40.913Z,99.90
2022-12-22T07:42:26.230Z,99.90
2022-12-22T07:44:53.080Z,99.90
2022-12-22T07:47:19.976Z,99.90
2022-12-22T07:50:05.531Z,99.90
2022-12-22T07:52:32.420Z,99.90
2022-12-22T07:54:59.323Z,99.90
2022-12-22T07:57:26.415Z,99.90
2022-12-22T07:59:53.879Z,99.90
2022-12-22T08:02:20.824Z,99.90
2022-12-22T08:04:47.882Z,99.90
2022-12-22T08:07:15.008Z,99.90
2022-12-22T08:09:41.923Z,99.90
2022-12-22T08:12:08.933Z,99.90
2022-12-22T08:14:36.018Z,99.90
2022-12-22T08:17:03.071Z,99.90
2022-12-22T08:19:29.943Z,99.90
2022-12-22T08:21:56.851Z,99.90
2022-12-22T08:24:23.778Z,99.90
2022-12-22T08:26:54.330Z,99.90
2022-12-22T08:29:41.639Z,99.90
2022-12-22T08:32:08.662Z,99.90
2022-12-22T08:34:35.626Z,99.90
2022-12-22T08:37:05.298Z,99.90
2022-12-22T08:39:35.199Z,99.90
2022-12-22T08:42:05.226Z,99.90
2022-12-22T08:44:32.113Z,99.90
2022-12-22T08:47:00.183Z,99.90
2022-12-22T08:49:27.445Z,99.90
2022-12-22T08:51:54.723Z,99.90
2022-12-22T08:54:22.142Z,99.90
2022-12-22T08:56:49.845Z,99.90
2022-12-22T08:59:17.264Z,99.90
2022-12-22T09:01:48.126Z,99.90
2022-12-22T09:04:17.926Z,99.90
2022-12-22T09:06:45.995Z,99.90
2022-12-22T09:09:14.196Z,99.90
2022-12-22T09:11:42.033Z,99.90
2022-12-22T09:14:10.684Z,99.90
2022-12-22T09:16:38.509Z,99.90
2022-12-22T09:19:07.056Z,99.90
2022-12-22T09:21:34.534Z,99.90
2022-12-22T09:24:01.644Z,99.90
2022-12-22T09:26:29.205Z,99.90
2022-12-22T09:28:56.821Z,1.00
2022-12-22T09:31:24.859Z,1.00
2022-12-22T09:33:52.358Z,1.00
2022-12-22T09:36:22.430Z,1.00
2022-12-22T09:38:49.704Z,24.80
2022-12-22T09:41:33.243Z,99.90
2022-12-22T09:44:05.886Z,99.90
2022-12-22T09:46:36.386Z,99.90
2022-12-22T09:49:06.702Z,99.90
2022-12-22T09:51:42.656Z,88.60
2022-12-22T09:54:12.370Z,42.10
2022-12-22T09:56:39.268Z,1.00
2022-12-22T09:59:12.710Z,1.00
2022-12-22T10:01:48.646Z,1.00
2022-12-22T10:04:46.812Z,1.00
2022-12-22T10:07:44.536Z,1.00
2022-12-22T10:10:25.312Z,1.00
2022-12-22T10:12:56.883Z,1.00
2022-12-22T10:15:24.389Z,1.00
2022-12-22T10:17:53.205Z,15.40
2022-12-22T10:20:27.714Z,13.10
2022-12-22T10:22:58.816Z,80.50
2022-12-22T10:28:24.426Z,98.70
2022-12-22T10:31:20.757Z,99.90
2022-12-22T10:33:51.215Z,99.90
2022-12-22T10:36:28.584Z,99.90
2022-12-22T10:39:05.509Z,99.90
2022-12-22T10:41:45.440Z,99.90
2022-12-22T10:44:21.969Z,99.90
2022-12-22T10:46:51.817Z,99.90
2022-12-22T10:52:30.111Z,99.90
2022-12-22T10:55:18.381Z,99.90
2022-12-22T10:57:45.556Z,99.90
2022-12-22T11:00:30.200Z,99.90
2022-12-22T11:02:59.714Z,99.90
2022-12-22T11:05:27.613Z,99.90
2022-12-22T11:07:55.429Z,99.90
2022-12-22T11:10:38.664Z,99.90
2022-12-22T11:13:36.027Z,99.90
2022-12-22T11:16:29.526Z,99.90
2022-12-22T11:19:14.700Z,99.90
2022-12-22T11:21:53.816Z,99.90
2022-12-22T11:24:29.890Z,99.90
2022-12-22T11:27:45.998Z,99.90
2022-12-22T11:30:20.059Z,99.90
2022-12-22T11:32:53.238Z,99.90
2022-12-22T11:35:38.898Z,99.90
2022-12-22T11:38:32.804Z,99.90
2022-12-22T11:41:33.847Z,99.90
2022-12-22T11:44:13.507Z,99.90
2022-12-22T11:46:53.726Z,99.90
2022-12-22T11:49:34.218Z,99.90
2022-12-22T11:52:47.418Z,99.90
2022-12-22T11:55:20.976Z,99.90
2022-12-22T11:58:12.657Z,99.90
2022-12-22T12:01:16.283Z,99.90
2022-12-22T12:04:22.454Z,99.90
2022-12-22T12:07:04.361Z,99.90
2022-12-22T12:09:50.626Z,99.90
2022-12-22T12:12:29.739Z,99.90
2022-12-22T12:15:18.314Z,99.90
2022-12-22T12:18:04.048Z,99.90
2022-12-22T12:20:45.570Z,99.90
2022-12-22T12:23:43.810Z,99.90
2022-12-22T12:26:35.092Z,99.90
2022-12-22T12:29:16.848Z,99.90
2022-12-22T12:32:05.315Z,99.90
2022-12-22T12:34:35.166Z,99.90
2022-12-22T12:37:24.256Z,99.90
2022-12-22T12:39:58.751Z,99.90
2022-12-22T12:42:28.314Z,99.90
2022-12-22T12:44:55.356Z,99.90
2022-12-22T12:47:29.315Z,99.90
2022-12-22T12:50:03.351Z,99.90
2022-12-22T12:52:39.572Z,99.90
2022-12-22T12:55:38.757Z,99.90
2022-12-22T12:58:10.500Z,99.90
2022-12-22T13:00:43.222Z,99.90
2022-12-22T13:06:49.729Z,99.90
2022-12-22T13:12:33.844Z,99.90
2022-12-22T13:15:02.006Z,99.90
2022-12-22T13:17:49.113Z,99.90
2022-12-22T13:20:27.238Z,99.90
2022-12-22T13:22:57.472Z,99.90
2022-12-22T13:25:27.583Z,99.90
2022-12-22T13:27:57.552Z,99.90
2022-12-22T13:30:25.286Z,99.90
2022-12-22T13:32:53.585Z,99.90
2022-12-22T13:35:32.734Z,99.90
2022-12-22T13:38:01.592Z,99.90
2022-12-22T13:40:40.219Z,99.90
2022-12-22T13:43:16.677Z,99.90
2022-12-22T13:45:45.121Z,99.90
2022-12-22T13:48:44.892Z,99.90
2022-12-22T13:51:23.808Z,99.90
2022-12-22T13:54:12.768Z,99.90
2022-12-22T13:56:50.670Z,99.90
2022-12-22T13:59:27.973Z,99.90
2022-12-22T14:02:04.346Z,99.90
2022-12-22T14:04:31.347Z,99.90
2022-12-22T14:07:09.467Z,99.90
2022-12-22T14:09:36.333Z,99.90
2022-12-22T14:12:03.154Z,99.90
2022-12-22T14:14:37.161Z,99.90
2022-12-22T14:17:05.064Z,99.90
2022-12-22T14:19:35.087Z,99.90
2022-12-22T14:22:13.766Z,99.90
2022-12-22T14:24:56.351Z,99.90
2022-12-22T14:27:37.994Z,99.90
2022-12-22T14:30:15.078Z,99.90
2022-12-22T14:32:49.118Z,99.90
2022-12-22T14:35:22.682Z,99.90
2022-12-22T14:37:51.939Z,99.90
2022-12-22T14:40:37.197Z,99.90
2022-12-22T14:43:07.288Z,99.90
2022-12-22T14:45:34.314Z,99.90
2022-12-22T14:48:01.240Z,99.90
2022-12-22T14:50:29.544Z,99.90
2022-12-22T14:53:01.491Z,99.90
2022-12-22T14:55:34.845Z,99.90
2022-12-22T14:58:03.999Z,99.90
2022-12-22T15:00:32.761Z,99.90
2022-12-22T15:03:27.519Z,99.90
2022-12-22T15:05:54.615Z,99.90
2022-12-22T15:08:42.047Z,99.90
2022-12-22T15:11:15.579Z,99.90
2022-12-22T15:13:43.522Z,99.90
2022-12-22T15:16:18.019Z,99.90
2022-12-22T15:18:45.434Z,99.90
2022-12-22T15:21:15.299Z,99.90
2022-12-22T15:23:42.847Z,99.90
2022-12-22T15:26:10.060Z,99.90
2022-12-22T15:28:37.085Z,99.90
2022-12-22T15:31:06.828Z,99.90
2022-12-22T15:33:33.782Z,99.90
2022-12-22T15:36:01.236Z,99.90
2022-12-22T15:38:31.035Z,99.90
2022-12-22T15:41:01.973Z,99.90
2022-12-22T15:43:56.759Z,99.90
2022-12-22T15:46:18.810Z,99.90
2022-12-22T15:48:46.589Z,99.90
2022-12-22T15:51:23.376Z,99.90
2022-12-22T15:53:50.977Z,99.90
2022-12-22T15:56:23.366Z,99.90
2022-12-22T15:58:50.361Z,99.90
2022-12-22T16:01:17.457Z,99.90
2022-12-22T16:03:44.456Z,99.90
2022-12-22T16:06:17.173Z,99.90
2022-12-22T16:08:49.720Z,99.90
2022-12-22T16:11:17.456Z,99.90
2022-12-22T16:13:45.398Z,99.90
2022-12-22T16:16:12.609Z,99.90
2022-12-22T16:18:39.681Z,99.90
2022-12-22T16:21:15.510Z,99.90
2022-12-22T16:23:45.579Z,99.90
2022-12-22T16:26:17.654Z,99.90
2022-12-22T16:28:44.722Z,99.90
2022-12-22T16:31:20.777Z,99.90
2022-12-22T16:33:48.414Z,99.90
2022-12-22T16:36:15.440Z,99.90
2022-12-22T16:38:43.233Z,99.90
2022-12-22T16:41:24.973Z,99.90
2022-12-22T16:43:55.087Z,99.90
2022-12-22T16:46:24.583Z,99.90
2022-12-22T16:48:59.889Z,99.90
2022-12-22T16:51:37.385Z,99.90
2022-12-22T16:54:04.670Z,99.90
2022-12-22T16:56:32.265Z,99.90
2022-12-22T16:58:59.224Z,99.90
2022-12-22T17:01:26.218Z,99.90
2022-12-22T17:03:53.641Z,99.90
2022-12-22T17:06:20.766Z,99.90
2022-12-22T17:08:48.112Z,99.90
2022-12-22T17:11:22.183Z,99.90
2022-12-22T17:13:52.203Z,99.90
2022-12-22T17:16:23.530Z,99.90
2022-12-22T17:18:50.475Z,99.90
2022-12-22T17:21:20.942Z,99.90
2022-12-22T17:23:51.377Z,99.90
2022-12-22T17:26:22.898Z,99.90
2022-12-22T17:28:50.721Z,99.90
2022-12-22T17:31:22.445Z,99.90
2022-12-22T17:33:49.853Z,99.90
2022-12-22T17:36:32.076Z,99.90
2022-12-22T17:38:59.206Z,99.90
2022-12-22T17:41:26.241Z,99.90
2022-12-22T17:43:53.605Z,99.90
2022-12-22T17:46:21.921Z,99.90
2022-12-22T17:48:49.622Z,99.90
2022-12-22T17:51:20.912Z,99.90
2022-12-22T17:53:47.988Z,99.90
2022-12-22T17:56:21.203Z,99.90
2022-12-22T17:58:48.399Z,99.90
2022-12-22T18:01:24.710Z,99.90
2022-12-22T18:03:51.946Z,99.90
2022-12-22T18:06:21.164Z,99.90
2022-12-22T18:08:48.485Z,99.90
2022-12-22T18:11:15.808Z,99.90
2022-12-22T18:13:43.092Z,99.90
2022-12-22T18:16:14.962Z,99.90
2022-12-22T18:18:42.857Z,99.90
2022-12-22T18:21:15.405Z,99.90
2022-12-22T18:23:49.555Z,99.90
2022-12-22T18:26:23.538Z,99.90
2022-12-22T18:28:50.990Z,99.90
2022-12-22T18:31:19.194Z,99.90
2022-12-22T18:33:46.235Z,99.90
2022-12-22T18:36:39.797Z,99.90
2022-12-22T18:39:09.497Z,99.90
2022-12-22T18:41:40.199Z,99.90
2022-12-22T18:44:18.049Z,99.90
2022-12-22T18:46:46.004Z,99.90
2022-12-22T18:49:13.558Z,99.90
2022-12-22T18:51:41.985Z,99.90
2022-12-22T18:54:36.909Z,99.90
2022-12-22T18:57:04.080Z,99.90
2022-12-22T18:59:32.600Z,99.90
2022-12-22T19:02:05.330Z,99.90
2022-12-22T19:04:32.377Z,99.90
2022-12-22T19:06:59.241Z,99.90
2022-12-22T19:09:27.107Z,99.90
2022-12-22T19:11:54.223Z,99.90
2022-12-22T19:14:22.845Z,99.90
2022-12-22T19:16:49.868Z,99.90
2022-12-22T19:19:20.990Z,99.90
2022-12-22T19:21:49.660Z,99.90
2022-12-22T19:24:16.534Z,99.90
2022-12-22T19:26:43.554Z,99.90
2022-12-22T19:29:13.846Z,99.90
2022-12-22T19:31:41.466Z,99.90
2022-12-22T19:34:15.446Z,99.90
2022-12-22T19:36:42.352Z,99.90
2022-12-22T19:39:09.192Z,99.90
2022-12-22T19:41:50.185Z,99.90
2022-12-22T19:44:26.624Z,99.90
2022-12-22T19:46:55.142Z,99.90
2022-12-22T19:49:25.324Z,99.90
2022-12-22T19:51:52.196Z,99.90
2022-12-22T19:54:19.880Z,99.90
2022-12-22T19:56:52.356Z,99.90
2022-12-22T19:59:28.497Z,99.90
2022-12-22T20:01:59.160Z,99.90
2022-12-22T20:04:26.648Z,99.90
2022-12-22T20:06:53.468Z,99.90
2022-12-22T20:09:20.294Z,99.90
2022-12-22T20:11:47.246Z,99.90
2022-12-22T20:14:18.539Z,99.90
2022-12-22T20:16:45.922Z,99.90
2022-12-22T20:19:16.293Z,99.90
2022-12-22T20:21:43.617Z,99.90
2022-12-22T20:24:19.238Z,99.90
2022-12-22T20:26:51.797Z,99.90
2022-12-22T20:29:20.841Z,99.90
2022-12-22T20:31:47.766Z,99.90
2022-12-22T20:34:14.723Z,99.90
2022-12-22T20:36:43.283Z,99.90
2022-12-22T20:39:16.375Z,99.90
2022-12-22T20:41:47.078Z,99.90
2022-12-22T20:44:17.499Z,99.90
2022-12-22T20:46:44.410Z,99.90
2022-12-22T20:49:15.142Z,99.90
2022-12-22T20:51:42.103Z,99.90
2022-12-22T20:54:15.630Z,99.90
2022-12-22T20:56:44.218Z,99.90
2022-12-22T20:59:22.711Z,99.90
2022-12-22T21:01:51.592Z,99.90
2022-12-22T21:04:19.154Z,99.90
2022-12-22T21:06:50.939Z,99.90
2022-12-22T21:09:18.914Z,99.90
2022-12-22T21:11:46.197Z,99.90
2022-12-22T21:14:13.329Z,99.90
2022-12-22T21:16:41.296Z,99.90
2022-12-22T21:19:08.326Z,99.90
2022-12-22T21:21:35.278Z,99.90
2022-12-22T21:24:02.156Z,99.90
2022-12-22T21:26:35.698Z,99.90
2022-12-22T21:29:08.010Z,99.90
2022-12-22T21:31:35.026Z,99.90
2022-12-22T21:34:01.963Z,99.90
2022-12-22T21:36:32.284Z,99.90
2022-12-22T21:39:02.810Z,99.90
2022-12-22T21:41:48.097Z,99.90
2022-12-22T21:44:14.941Z,99.90
2022-12-22T21:46:45.883Z,99.90
2022-12-22T21:49:21.721Z,99.90
2022-12-22T21:51:50.262Z,99.90
2022-12-22T21:54:18.792Z,99.90
2022-12-22T21:56:45.906Z,99.90
2022-12-22T21:59:13.282Z,99.90
2022-12-22T22:01:44.964Z,99.90
2022-12-22T22:04:12.195Z,99.90
2022-12-22T22:06:39.077Z,99.90
2022-12-22T22:09:07.290Z,99.90
2022-12-22T22:11:54.831Z,99.90
2022-12-22T22:14:22.198Z,99.90
2022-12-22T22:16:49.323Z,99.90
2022-12-22T22:19:17.945Z,99.90
2022-12-22T22:21:45.811Z,99.90
2022-12-22T22:24:13.049Z,99.90
2022-12-22T22:26:39.987Z,99.90
2022-12-22T22:29:06.899Z,99.90
2022-12-22T22:31:33.921Z,99.90
2022-12-22T22:34:00.882Z,99.90
2022-12-22T22:36:27.835Z,99.90
2022-12-22T22:38:54.667Z,99.90
2022-12-22T22:41:21.511Z,99.90
2022-12-22T22:43:48.423Z,99.90
2022-12-22T22:46:15.397Z,99.90
2022-12-22T22:48:42.357Z,99.90
2022-12-22T22:51:10.846Z,99.90
2022-12-22T22:53:37.704Z,99.90
2022-12-22T22:56:04.928Z,99.90
2022-12-22T22:58:31.822Z,99.90
2022-12-22T23:01:09.930Z,99.90
2022-12-22T23:03:37.730Z,99.90
2022-12-22T23:06:07.563Z,99.90
2022-12-22T23:08:35.091Z,99.90
2022-12-22T23:11:03.301Z,99.90
2022-12-22T23:13:30.612Z,99.90
2022-12-22T23:16:00.012Z,99.90
2022-12-22T23:18:27.797Z,99.90
2022-12-22T23:21:01.093Z,99.90
2022-12-22T23:23:29.202Z,99.90
2022-12-22T23:25:56.319Z,99.90
2022-12-22T23:28:23.478Z,99.90
2022-12-22T23:30:52.053Z,99.90
2022-12-22T23:33:20.170Z,99.90
2022-12-22T23:35:48.937Z,99.90
2022-12-22T23:38:17.350Z,99.90
2022-12-22T23:40:53.665Z,99.90
2022-12-22T23:43:21.194Z,99.90
2022-12-22T23:45:48.063Z,99.90
2022-12-22T23:48:14.996Z,99.90
2022-12-22T23:50:45.318Z,99.90
2022-12-22T23:53:12.191Z,99.90
2022-12-22T23:55:44.286Z,99.90
2022-12-22T23:58:11.345Z,99.90
